createdAt,value
2023-03-12T00:02:07.338Z,3.20
2023-03-12T00:04:36.089Z,2.90
2023-03-12T00:07:03.580Z,3.40
2023-03-12T00:09:32.363Z,3.30
2023-03-12T00:11:59.990Z,3.07
2023-03-12T00:14:27.832Z,2.90
2023-03-12T00:16:55.820Z,2.97
2023-03-12T00:19:23.287Z,3.03
2023-03-12T00:21:50.795Z,3.10
2023-03-12T00:24:18.379Z,3.10
2023-03-12T00:26:47.116Z,3.17
2023-03-12T00:29:14.593Z,3.20
2023-03-12T00:31:42.254Z,3.03
2023-03-12T00:34:10.401Z,3.27
2023-03-12T00:36:38.164Z,3.53
2023-03-12T00:39:05.715Z,3.80
2023-03-12T00:41:33.108Z,3.43
2023-03-12T00:44:01.904Z,3.53
2023-03-12T00:46:29.678Z,3.50
2023-03-12T00:48:57.198Z,3.60
2023-03-12T00:51:24.653Z,3.33
2023-03-12T00:53:52.088Z,3.97
2023-03-12T00:56:19.645Z,3.70
2023-03-12T00:58:47.012Z,3.13
2023-03-12T01:01:16.610Z,3.53
2023-03-12T01:03:44.125Z,3.07
2023-03-12T01:06:11.539Z,3.50
2023-03-12T01:08:38.956Z,3.30
2023-03-12T01:11:06.523Z,2.70
2023-03-12T01:13:34.245Z,2.93
2023-03-12T01:16:02.034Z,2.67
2023-03-12T01:18:30.981Z,3.00
2023-03-12T01:20:59.341Z,2.80
2023-03-12T01:23:26.822Z,2.87
2023-03-12T01:25:55.459Z,2.90
2023-03-12T01:28:23.115Z,3.03
2023-03-12T01:30:50.678Z,2.83
2023-03-12T01:33:18.530Z,2.93
2023-03-12T01:35:47.395Z,2.70
2023-03-12T01:38:16.491Z,3.20
2023-03-12T01:40:45.256Z,2.87
2023-03-12T01:43:26.232Z,2.80
2023-03-12T01:46:11.389Z,3.20
2023-03-12T01:48:40.866Z,2.60
2023-03-12T01:51:11.474Z,2.77
2023-03-12T01:53:39.433Z,2.77
2023-03-12T01:56:08.079Z,2.50
2023-03-12T01:58:37.476Z,3.07
2023-03-12T02:01:05.173Z,2.60
2023-03-12T02:03:33.969Z,3.00
2023-03-12T02:06:03.571Z,2.90
2023-03-12T02:08:32.334Z,2.67
2023-03-12T02:10:59.755Z,3.30
2023-03-12T02:13:28.230Z,2.60
2023-03-12T02:15:55.696Z,2.60
2023-03-12T02:18:23.140Z,2.80
2023-03-12T02:20:53.766Z,2.73
2023-03-12T02:23:24.875Z,2.80
2023-03-12T02:25:54.335Z,2.87
2023-03-12T02:28:24.104Z,2.50
2023-03-12T02:30:53.497Z,3.30
2023-03-12T02:33:20.984Z,2.70
2023-03-12T02:35:49.062Z,2.53
2023-03-12T02:38:34.959Z,2.60
2023-03-12T02:41:05.577Z,2.60
2023-03-12T02:43:33.348Z,2.60
2023-03-12T02:46:00.848Z,2.30
2023-03-12T02:48:28.365Z,2.60
2023-03-12T02:50:55.828Z,2.50
2023-03-12T02:53:23.299Z,2.33
2023-03-12T02:55:50.805Z,2.50
2023-03-12T02:58:19.601Z,2.10
2023-03-12T03:00:47.071Z,2.90
2023-03-12T03:03:14.555Z,2.60
2023-03-12T03:05:42.024Z,2.77
2023-03-12T03:08:09.522Z,2.80
2023-03-12T03:10:36.950Z,2.50
2023-03-12T03:13:04.389Z,2.90
2023-03-12T03:15:33.325Z,2.87
2023-03-12T03:18:03.815Z,2.80
2023-03-12T03:20:31.684Z,2.50
2023-03-12T03:22:59.231Z,2.50
2023-03-12T03:25:26.773Z,2.47
2023-03-12T03:27:54.373Z,3.10
2023-03-12T03:30:22.261Z,2.53
2023-03-12T03:32:51.260Z,2.30
2023-03-12T03:35:18.863Z,2.57
2023-03-12T03:37:46.310Z,2.47
2023-03-12T03:40:13.863Z,2.63
2023-03-12T03:42:41.801Z,2.63
2023-03-12T03:45:10.115Z,2.60
2023-03-12T03:47:37.793Z,2.27
2023-03-12T03:50:07.938Z,2.30
2023-03-12T03:52:35.397Z,2.60
2023-03-12T03:55:02.860Z,2.37
2023-03-12T03:57:30.285Z,2.27
2023-03-12T03:59:59.883Z,2.20
2023-03-12T04:02:28.765Z,2.40
2023-03-12T04:04:58.421Z,2.53
2023-03-12T04:07:27.264Z,2.17
2023-03-12T04:09:54.882Z,2.30
2023-03-12T04:12:24.070Z,2.00
2023-03-12T04:14:51.590Z,2.20
2023-03-12T04:17:19.145Z,2.47
2023-03-12T04:19:46.645Z,2.80
2023-03-12T04:22:14.106Z,2.40
2023-03-12T04:24:42.908Z,2.07
2023-03-12T04:27:10.343Z,2.00
2023-03-12T04:29:39.135Z,2.20
2023-03-12T04:32:07.020Z,2.50
2023-03-12T04:34:34.455Z,2.10
2023-03-12T04:37:02.117Z,2.23
2023-03-12T04:39:29.545Z,2.43
2023-03-12T04:41:58.343Z,2.13
2023-03-12T04:44:25.757Z,2.03
2023-03-12T04:46:53.377Z,2.27
2023-03-12T04:49:20.887Z,1.97
2023-03-12T04:51:48.297Z,2.00
2023-03-12T04:54:15.736Z,2.20
2023-03-12T04:56:43.291Z,2.03
2023-03-12T04:59:12.069Z,2.20
2023-03-12T05:01:39.519Z,2.03
2023-03-12T05:04:07.148Z,1.80
2023-03-12T05:06:34.909Z,2.00
2023-03-12T05:09:02.482Z,1.90
2023-03-12T05:11:30.194Z,2.33
2023-03-12T05:13:57.670Z,2.00
2023-03-12T05:16:26.604Z,2.00
2023-03-12T05:18:54.089Z,2.10
2023-03-12T05:21:22.409Z,1.87
2023-03-12T05:23:49.896Z,2.30
2023-03-12T05:26:18.476Z,2.33
2023-03-12T05:28:45.930Z,2.17
2023-03-12T05:31:13.704Z,2.00
2023-03-12T05:33:42.930Z,2.13
2023-03-12T05:36:10.798Z,2.20
2023-03-12T05:38:38.716Z,2.00
2023-03-12T05:41:06.733Z,2.50
2023-03-12T05:43:34.293Z,2.40
2023-03-12T05:46:02.623Z,2.50
2023-03-12T05:48:30.569Z,2.30
2023-03-12T05:50:59.349Z,2.60
2023-03-12T05:53:26.862Z,2.20
2023-03-12T05:55:54.278Z,2.70
2023-03-12T05:58:21.686Z,2.40
2023-03-12T06:00:49.168Z,2.37
2023-03-12T06:03:16.633Z,3.00
2023-03-12T06:05:45.271Z,2.50
2023-03-12T06:08:13.990Z,2.30
2023-03-12T06:10:41.472Z,2.70
2023-03-12T06:13:09.182Z,3.03
2023-03-12T06:15:37.175Z,2.60
2023-03-12T06:18:04.820Z,2.90
2023-03-12T06:20:32.471Z,3.00
2023-03-12T06:23:00.005Z,2.40
2023-03-12T06:25:28.855Z,2.90
2023-03-12T06:27:56.328Z,2.87
2023-03-12T06:30:23.762Z,2.70
2023-03-12T06:32:51.257Z,3.00
2023-03-12T06:35:18.756Z,3.00
2023-03-12T06:37:46.196Z,2.73
2023-03-12T06:40:13.918Z,2.83
2023-03-12T06:42:42.744Z,2.80
2023-03-12T06:45:10.597Z,2.70
2023-03-12T06:47:37.988Z,2.63
2023-03-12T06:50:05.822Z,2.60
2023-03-12T06:52:33.220Z,2.63
2023-03-12T06:55:00.665Z,2.80
2023-03-12T06:57:28.090Z,2.70
2023-03-12T06:59:56.868Z,2.53
2023-03-12T07:02:24.315Z,2.80
2023-03-12T07:04:52.334Z,3.00
2023-03-12T07:07:20.109Z,3.00
2023-03-12T07:09:47.653Z,2.90
2023-03-12T07:12:15.101Z,3.03
2023-03-12T07:14:42.483Z,3.07
2023-03-12T07:17:11.317Z,2.80
2023-03-12T07:19:38.925Z,2.67
2023-03-12T07:22:06.413Z,2.73
2023-03-12T07:24:33.842Z,2.37
2023-03-12T07:27:01.273Z,2.90
2023-03-12T07:29:28.753Z,2.33
2023-03-12T07:31:56.188Z,2.60
2023-03-12T07:34:25.062Z,2.23
2023-03-12T07:36:52.764Z,2.50
2023-03-12T07:39:20.300Z,2.70
2023-03-12T07:41:47.957Z,2.73
2023-03-12T07:44:15.482Z,2.93
2023-03-12T07:46:42.992Z,2.60
2023-03-12T07:49:10.452Z,2.63
2023-03-12T07:51:39.242Z,2.93
2023-03-12T07:54:06.766Z,2.90
2023-03-12T07:56:35.181Z,2.53
2023-03-12T07:59:03.753Z,2.53
2023-03-12T08:01:32.303Z,2.40
2023-03-12T08:04:00.103Z,2.60
2023-03-12T08:06:27.552Z,2.70
2023-03-12T08:08:56.528Z,2.83
2023-03-12T08:11:24.100Z,2.60
2023-03-12T08:13:51.487Z,2.67
2023-03-12T08:16:19.465Z,2.60
2023-03-12T08:18:46.967Z,2.57
2023-03-12T08:21:16.989Z,2.60
2023-03-12T08:23:44.458Z,2.70
2023-03-12T08:26:13.353Z,2.60
2023-03-12T08:28:41.008Z,3.60
2023-03-12T08:31:09.545Z,3.80
2023-03-12T08:33:41.117Z,3.00
2023-03-12T08:36:09.021Z,3.40
2023-03-12T08:38:36.504Z,3.00
2023-03-12T08:41:03.880Z,2.90
2023-03-12T08:43:32.897Z,3.00
2023-03-12T08:46:01.407Z,3.30
2023-03-12T08:48:30.418Z,3.30
2023-03-12T08:50:58.183Z,3.23
2023-03-12T08:53:25.767Z,3.07
2023-03-12T08:55:53.614Z,3.33
2023-03-12T08:58:21.137Z,3.40
2023-03-12T09:00:49.845Z,3.60
2023-03-12T09:03:17.332Z,3.13
2023-03-12T09:05:45.441Z,3.57
2023-03-12T09:08:13.138Z,3.30
2023-03-12T09:10:40.636Z,3.20
2023-03-12T09:13:08.244Z,3.30
2023-03-12T09:15:35.649Z,3.53
2023-03-12T09:18:04.588Z,3.73
2023-03-12T09:20:32.269Z,3.47
2023-03-12T09:22:59.740Z,3.23
2023-03-12T09:25:27.210Z,4.10
2023-03-12T09:27:54.714Z,4.47
2023-03-12T09:30:25.098Z,3.70
2023-03-12T09:32:52.666Z,4.30
2023-03-12T09:35:21.495Z,4.07
2023-03-12T09:37:49.599Z,4.57
2023-03-12T09:40:17.955Z,3.90
2023-03-12T09:42:47.710Z,4.70
2023-03-12T09:45:16.703Z,4.70
2023-03-12T09:47:47.265Z,4.50
2023-03-12T09:50:20.769Z,4.30
2023-03-12T09:52:51.455Z,4.53
2023-03-12T09:55:21.356Z,4.43
2023-03-12T09:57:50.537Z,5.50
2023-03-12T10:00:19.199Z,5.33
2023-03-12T10:02:54.641Z,5.40
2023-03-12T10:05:26.858Z,4.90
2023-03-12T10:07:58.796Z,5.47
2023-03-12T10:10:36.923Z,4.97
2023-03-12T10:13:18.006Z,5.37
2023-03-12T10:15:49.859Z,5.20
2023-03-12T10:18:22.045Z,5.50
2023-03-12T10:21:08.043Z,5.60
2023-03-12T10:23:42.228Z,4.93
2023-03-12T10:26:12.109Z,5.70
2023-03-12T10:28:42.094Z,5.50
2023-03-12T10:31:14.529Z,4.80
2023-03-12T10:33:45.027Z,4.87
2023-03-12T10:36:16.790Z,5.63
2023-03-12T10:38:45.620Z,4.90
2023-03-12T10:41:15.348Z,5.67
2023-03-12T10:43:42.854Z,5.53
2023-03-12T10:46:21.979Z,6.25
2023-03-12T10:48:49.409Z,6.20
2023-03-12T10:51:16.912Z,6.20
2023-03-12T10:53:47.942Z,5.97
2023-03-12T10:56:17.485Z,6.33
2023-03-12T10:58:45.854Z,5.30
2023-03-12T11:01:21.411Z,5.57
2023-03-12T11:03:50.127Z,6.00
2023-03-12T11:06:22.312Z,6.67
2023-03-12T11:09:16.189Z,7.40
2023-03-12T11:11:47.465Z,7.03
2023-03-12T11:14:17.519Z,6.20
2023-03-12T11:16:45.052Z,6.73
2023-03-12T11:19:13.853Z,7.73
2023-03-12T11:21:51.124Z,6.77
2023-03-12T11:24:19.824Z,6.30
2023-03-12T11:26:50.605Z,6.37
2023-03-12T11:29:26.229Z,7.30
2023-03-12T11:31:59.715Z,6.80
2023-03-12T11:34:28.185Z,7.13
2023-03-12T11:36:59.011Z,7.17
2023-03-12T11:39:31.483Z,7.13
2023-03-12T11:42:04.686Z,7.33
2023-03-12T11:44:34.600Z,7.27
2023-03-12T11:47:14.291Z,6.93
2023-03-12T11:49:50.448Z,8.30
2023-03-12T11:52:22.231Z,7.67
2023-03-12T11:55:00.143Z,7.07
2023-03-12T11:57:31.559Z,7.70
2023-03-12T12:00:10.465Z,8.30
2023-03-12T12:02:47.971Z,8.20
2023-03-12T12:05:22.137Z,8.17
2023-03-12T12:07:54.217Z,8.10
2023-03-12T12:10:28.467Z,8.73
2023-03-12T12:13:00.210Z,9.27
2023-03-12T12:15:31.001Z,9.30
2023-03-12T12:18:03.237Z,10.63
2023-03-12T12:20:38.636Z,10.13
2023-03-12T12:23:20.943Z,10.00
2023-03-12T12:25:58.546Z,10.07
2023-03-12T12:28:31.119Z,11.00
2023-03-12T12:31:05.607Z,11.20
2023-03-12T12:33:39.982Z,11.33
2023-03-12T12:36:09.706Z,11.13
2023-03-12T12:38:39.563Z,11.50
2023-03-12T12:41:10.775Z,11.17
2023-03-12T12:43:38.785Z,10.97
2023-03-12T12:46:07.736Z,10.10
2023-03-12T12:48:37.483Z,11.40
2023-03-12T12:51:08.715Z,10.87
2023-03-12T12:53:41.760Z,10.20
2023-03-12T12:56:15.520Z,10.17
2023-03-12T12:58:57.957Z,8.90
2023-03-12T13:01:27.776Z,8.00
2023-03-12T13:04:04.112Z,8.03
2023-03-12T13:06:54.300Z,8.27
2023-03-12T13:09:22.922Z,6.80
2023-03-12T13:11:51.785Z,6.70
2023-03-12T13:14:39.445Z,6.50
2023-03-12T13:17:08.147Z,6.57
2023-03-12T13:19:40.638Z,6.30
2023-03-12T13:22:14.353Z,5.70
2023-03-12T13:24:47.052Z,6.00
2023-03-12T13:27:19.460Z,5.97
2023-03-12T13:29:47.497Z,5.57
2023-03-12T13:32:33.662Z,5.23
2023-03-12T13:35:01.906Z,4.87
2023-03-12T13:37:44.454Z,4.80
2023-03-12T13:40:26.785Z,5.50
2023-03-12T13:43:06.388Z,4.90
2023-03-12T13:45:35.350Z,4.10
2023-03-12T13:48:06.138Z,3.90
2023-03-12T13:50:34.647Z,4.50
2023-03-12T13:53:04.063Z,4.03
2023-03-12T13:55:32.996Z,4.10
2023-03-12T13:58:03.828Z,4.10
2023-03-12T14:00:34.083Z,3.80
2023-03-12T14:03:02.648Z,3.60
2023-03-12T14:05:31.743Z,3.93
2023-03-12T14:08:07.307Z,3.70
2023-03-12T14:10:39.111Z,3.40
2023-03-12T14:13:10.690Z,4.20
2023-03-12T14:15:42.799Z,3.60
2023-03-12T14:18:16.158Z,3.70
2023-03-12T14:20:49.168Z,4.23
2023-03-12T14:23:18.417Z,4.83
2023-03-12T14:25:47.267Z,3.83
2023-03-12T14:28:16.855Z,3.50
2023-03-12T14:30:49.960Z,3.40
2023-03-12T14:33:17.686Z,4.40
2023-03-12T14:35:46.404Z,3.73
2023-03-12T14:38:17.473Z,4.20
2023-03-12T14:40:46.764Z,3.60
2023-03-12T14:43:21.397Z,3.40
2023-03-12T14:45:52.880Z,3.60
2023-03-12T14:48:24.440Z,3.50
2023-03-12T14:50:52.180Z,3.70
2023-03-12T14:53:21.010Z,3.87
2023-03-12T14:55:48.615Z,3.50
2023-03-12T14:58:17.144Z,3.10
2023-03-12T15:00:45.652Z,3.37
2023-03-12T15:03:16.300Z,3.50
2023-03-12T15:05:46.066Z,3.53
2023-03-12T15:08:14.079Z,3.30
2023-03-12T15:10:43.317Z,3.67
2023-03-12T15:13:12.838Z,3.73
2023-03-12T15:15:41.494Z,3.50
2023-03-12T15:18:09.967Z,3.33
2023-03-12T15:20:39.555Z,3.20
2023-03-12T15:23:07.284Z,3.43
2023-03-12T15:25:35.940Z,3.40
2023-03-12T15:28:08.123Z,3.00
2023-03-12T15:30:36.463Z,3.30
2023-03-12T15:33:08.854Z,2.90
2023-03-12T15:35:37.039Z,2.20
2023-03-12T15:38:06.635Z,2.33
2023-03-12T15:40:34.023Z,2.63
2023-03-12T15:43:03.565Z,2.80
2023-03-12T15:45:36.191Z,2.63
2023-03-12T15:48:05.094Z,2.80
2023-03-12T15:50:34.995Z,2.97
2023-03-12T15:53:03.339Z,2.80
2023-03-12T15:55:33.263Z,3.20
2023-03-12T15:58:01.124Z,2.40
2023-03-12T16:00:30.160Z,3.57
2023-03-12T16:02:58.675Z,3.07
2023-03-12T16:05:27.946Z,3.10
2023-03-12T16:07:55.591Z,3.37
2023-03-12T16:10:24.252Z,3.33
2023-03-12T16:12:54.389Z,3.40
2023-03-12T16:15:23.789Z,3.30
2023-03-12T16:17:51.226Z,3.57
2023-03-12T16:20:19.925Z,3.30
2023-03-12T16:22:47.433Z,3.13
2023-03-12T16:25:15.002Z,3.30
2023-03-12T16:27:49.271Z,3.10
2023-03-12T16:30:19.841Z,3.40
2023-03-12T16:32:47.532Z,3.63
2023-03-12T16:35:15.968Z,3.53
2023-03-12T16:37:43.486Z,4.83
2023-03-12T16:40:14.471Z,5.80
2023-03-12T16:42:45.380Z,4.43
2023-03-12T16:45:14.005Z,4.40
2023-03-12T16:47:43.561Z,5.77
2023-03-12T16:50:14.877Z,4.30
2023-03-12T16:52:42.700Z,3.70
2023-03-12T16:55:10.374Z,3.77
2023-03-12T16:57:38.511Z,3.67
2023-03-12T17:00:08.126Z,3.90
2023-03-12T17:02:35.869Z,3.80
2023-03-12T17:05:04.745Z,4.10
2023-03-12T17:07:32.174Z,3.70
2023-03-12T17:09:59.725Z,4.07
2023-03-12T17:12:30.265Z,4.30
2023-03-12T17:14:58.667Z,4.13
2023-03-12T17:17:26.247Z,3.60
2023-03-12T17:19:53.702Z,3.67
2023-03-12T17:22:23.135Z,3.57
2023-03-12T17:24:50.616Z,3.90
2023-03-12T17:27:18.050Z,4.00
2023-03-12T17:29:45.463Z,4.03
2023-03-12T17:32:12.887Z,3.57
2023-03-12T17:34:40.335Z,3.67
2023-03-12T17:37:08.141Z,3.33
2023-03-12T17:39:36.939Z,3.57
2023-03-12T17:42:04.786Z,3.27
2023-03-12T17:44:34.621Z,4.17
2023-03-12T17:47:02.255Z,4.03
2023-03-12T17:49:30.553Z,3.77
2023-03-12T17:51:58.183Z,3.90
2023-03-12T17:54:25.645Z,3.87
2023-03-12T17:56:54.408Z,3.53
2023-03-12T17:59:21.906Z,3.90
2023-03-12T18:01:49.361Z,3.50
2023-03-12T18:04:16.777Z,3.50
2023-03-12T18:06:44.277Z,3.17
2023-03-12T18:09:11.634Z,4.20
2023-03-12T18:11:39.041Z,3.60
2023-03-12T18:14:07.884Z,3.63
2023-03-12T18:16:35.404Z,3.40
2023-03-12T18:19:02.919Z,3.50
2023-03-12T18:21:30.327Z,3.17
2023-03-12T18:24:02.056Z,3.43
2023-03-12T18:26:35.641Z,3.37
2023-03-12T18:29:03.118Z,3.80
2023-03-12T18:31:31.851Z,3.83
2023-03-12T18:33:59.342Z,6.27
2023-03-12T18:36:26.757Z,4.33
2023-03-12T18:38:54.230Z,5.07
2023-03-12T18:41:21.680Z,4.30
2023-03-12T18:43:49.260Z,4.50
2023-03-12T18:46:16.949Z,4.73
2023-03-12T18:48:45.746Z,3.30
2023-03-12T18:51:13.167Z,3.37
2023-03-12T18:53:40.641Z,3.87
2023-03-12T18:56:08.151Z,3.90
2023-03-12T18:58:35.603Z,3.00
2023-03-12T19:01:03.052Z,3.70
2023-03-12T19:03:36.194Z,3.60
2023-03-12T19:06:06.749Z,3.77
2023-03-12T19:08:34.860Z,3.50
2023-03-12T19:11:04.414Z,3.53
2023-03-12T19:13:32.920Z,3.60
2023-03-12T19:16:01.120Z,3.87
2023-03-12T19:18:28.888Z,3.80
2023-03-12T19:20:56.405Z,4.27
2023-03-12T19:23:25.271Z,4.00
2023-03-12T19:25:52.864Z,3.37
2023-03-12T19:28:20.321Z,2.90
2023-03-12T19:30:47.935Z,3.57
2023-03-12T19:33:15.417Z,3.00
2023-03-12T19:35:43.217Z,3.80
2023-03-12T19:38:10.716Z,3.90
2023-03-12T19:40:39.474Z,3.90
2023-03-12T19:43:07.048Z,3.00
2023-03-12T19:45:36.787Z,3.77
2023-03-12T19:48:04.743Z,3.13
2023-03-12T19:50:32.174Z,3.30
2023-03-12T19:52:59.625Z,3.50
2023-03-12T19:55:27.110Z,3.63
2023-03-12T19:57:55.928Z,3.20
2023-03-12T20:00:23.334Z,3.47
2023-03-12T20:02:50.838Z,3.47
2023-03-12T20:05:18.382Z,3.40
2023-03-12T20:07:46.714Z,3.07
2023-03-12T20:10:14.341Z,4.00
2023-03-12T20:12:41.798Z,3.63
2023-03-12T20:15:10.949Z,3.80
2023-03-12T20:17:38.412Z,4.00
2023-03-12T20:20:07.898Z,3.40
2023-03-12T20:22:36.372Z,4.40
2023-03-12T20:25:04.129Z,4.23
2023-03-12T20:27:33.987Z,4.00
2023-03-12T20:30:03.432Z,3.60
2023-03-12T20:32:32.301Z,4.80
2023-03-12T20:34:59.767Z,3.90
2023-03-12T20:37:27.238Z,3.57
2023-03-12T20:39:54.658Z,3.43
2023-03-12T20:42:22.093Z,3.70
2023-03-12T20:44:49.604Z,3.43
2023-03-12T20:47:17.169Z,3.20
2023-03-12T20:49:45.951Z,3.53
2023-03-12T20:52:13.499Z,3.20
2023-03-12T20:54:40.969Z,3.70
2023-03-12T20:57:08.517Z,3.10
2023-03-12T20:59:35.974Z,3.43
2023-03-12T21:02:03.526Z,3.60
2023-03-12T21:04:30.989Z,3.77
2023-03-12T21:06:59.749Z,4.20
2023-03-12T21:09:27.222Z,3.70
2023-03-12T21:11:54.690Z,3.47
2023-03-12T21:14:22.167Z,3.87
2023-03-12T21:16:49.650Z,4.30
2023-03-12T21:19:17.135Z,4.27
2023-03-12T21:21:44.566Z,3.70
2023-03-12T21:24:13.374Z,4.30
2023-03-12T21:26:40.800Z,4.37
2023-03-12T21:29:08.782Z,4.47
2023-03-12T21:31:36.493Z,4.97
2023-03-12T21:34:04.001Z,4.27
2023-03-12T21:36:31.520Z,5.07
2023-03-12T21:39:01.154Z,4.50
2023-03-12T21:41:29.982Z,4.10
2023-03-12T21:43:57.498Z,3.83
2023-03-12T21:46:27.529Z,4.20
2023-03-12T21:48:55.105Z,4.43
2023-03-12T21:51:22.813Z,3.87
2023-03-12T21:53:53.305Z,3.83
2023-03-12T21:56:20.734Z,3.73
2023-03-12T21:58:49.522Z,3.40
2023-03-12T22:01:17.963Z,4.90
2023-03-12T22:03:45.929Z,4.60
2023-03-12T22:06:14.234Z,4.70
2023-03-12T22:08:42.001Z,5.67
2023-03-12T22:11:10.005Z,5.13
2023-03-12T22:13:37.486Z,6.00
2023-03-12T22:16:08.086Z,6.37
2023-03-12T22:18:38.237Z,5.50
2023-03-12T22:21:07.453Z,4.73
2023-03-12T22:23:35.591Z,4.47
2023-03-12T22:26:03.486Z,4.43
2023-03-12T22:28:31.262Z,4.00
2023-03-12T22:30:59.697Z,4.20
2023-03-12T22:33:29.003Z,4.00
2023-03-12T22:35:56.626Z,3.80
2023-03-12T22:38:24.299Z,4.00
2023-03-12T22:40:53.740Z,4.33
2023-03-12T22:43:22.999Z,3.33
2023-03-12T22:45:53.411Z,4.10
2023-03-12T22:48:20.840Z,3.73
2023-03-12T22:50:54.812Z,4.17
2023-03-12T22:53:22.300Z,3.93
2023-03-12T22:55:56.856Z,3.70
2023-03-12T22:58:24.282Z,3.60
2023-03-12T23:00:51.764Z,3.60
2023-03-12T23:03:19.170Z,4.30
2023-03-12T23:05:46.592Z,3.40
2023-03-12T23:08:15.371Z,3.03
2023-03-12T23:10:42.803Z,3.00
2023-03-12T23:13:10.314Z,2.80
2023-03-12T23:15:41.255Z,2.63
2023-03-12T23:18:09.290Z,2.70
2023-03-12T23:20:36.714Z,2.70
2023-03-12T23:23:04.268Z,2.80
2023-03-12T23:25:33.333Z,2.93
2023-03-12T23:28:00.863Z,3.03
2023-03-12T23:30:28.539Z,2.67
2023-03-12T23:32:56.142Z,2.80
2023-03-12T23:35:23.638Z,3.23
2023-03-12T23:37:51.145Z,2.67
2023-03-12T23:40:18.652Z,2.90
2023-03-12T23:42:47.447Z,2.57
2023-03-12T23:45:14.883Z,3.00
2023-03-12T23:47:42.269Z,2.43
2023-03-12T23:50:10.444Z,2.80
2023-03-12T23:52:37.898Z,2.67
2023-03-12T23:55:05.749Z,2.57
2023-03-12T23:57:33.231Z,2.80
